createdAt,value
2018-03-11T00:01:06.170Z,9.30
2018-03-11T00:03:34.541Z,9.40
2018-03-11T00:06:02.014Z,9.30
2018-03-11T00:08:29.482Z,9.40
2018-03-11T00:10:56.958Z,9.40
2018-03-11T00:13:24.428Z,9.30
2018-03-11T00:15:51.903Z,9.30
2018-03-11T00:18:19.378Z,9.40
2018-03-11T00:20:47.609Z,9.30
2018-03-11T00:23:15.090Z,9.30
2018-03-11T00:25:42.578Z,9.30
2018-03-11T00:28:10.931Z,9.30
2018-03-11T00:30:38.404Z,9.20
2018-03-11T00:33:05.937Z,9.30
2018-03-11T00:35:33.410Z,9.30
2018-03-11T00:38:00.872Z,9.30
2018-03-11T00:40:29.200Z,9.30
2018-03-11T00:42:56.746Z,9.30
2018-03-11T00:45:24.237Z,9.30
2018-03-11T00:47:51.692Z,9.30
2018-03-11T00:50:19.159Z,9.20
2018-03-11T00:52:46.635Z,9.20
2018-03-11T00:55:14.869Z,9.20
2018-03-11T00:57:42.660Z,9.10
2018-03-11T01:00:10.114Z,9.20
2018-03-11T01:02:37.577Z,9.20
2018-03-11T01:05:05.120Z,9.20
2018-03-11T01:07:32.595Z,9.10
2018-03-11T01:10:00.060Z,9.10
2018-03-11T01:12:28.311Z,9.10
2018-03-11T01:14:55.771Z,9.10
2018-03-11T01:17:23.268Z,9.10
2018-03-11T01:19:51.488Z,9.10
2018-03-11T01:22:18.953Z,9.10
2018-03-11T01:24:46.421Z,9.10
2018-03-11T01:27:13.881Z,9.10
2018-03-11T01:29:41.336Z,9.10
2018-03-11T01:32:08.814Z,9.20
2018-03-11T01:34:37.049Z,9.20
2018-03-11T01:37:04.519Z,9.20
2018-03-11T01:39:32.088Z,9.30
2018-03-11T01:41:59.545Z,9.30
2018-03-11T01:44:27.101Z,9.30
2018-03-11T01:46:54.566Z,9.30
2018-03-11T01:49:22.029Z,9.30
2018-03-11T01:51:50.288Z,9.20
2018-03-11T01:54:17.849Z,9.20
2018-03-11T01:56:45.317Z,9.20
2018-03-11T01:59:13.553Z,9.20
2018-03-11T02:01:41.011Z,9.10
2018-03-11T02:04:08.490Z,9.20
2018-03-11T02:06:36.042Z,9.20
2018-03-11T02:09:03.535Z,9.10
2018-03-11T02:11:31.768Z,9.10
2018-03-11T02:13:59.240Z,9.10
2018-03-11T02:16:28.224Z,9.00
2018-03-11T02:18:55.786Z,9.10
2018-03-11T02:21:23.348Z,9.10
2018-03-11T02:23:50.907Z,9.00
2018-03-11T02:26:18.364Z,9.00
2018-03-11T02:28:45.917Z,8.90
2018-03-11T02:31:13.487Z,8.90
2018-03-11T02:33:41.723Z,8.80
2018-03-11T02:36:09.185Z,8.80
2018-03-11T02:38:36.945Z,8.80
2018-03-11T02:41:04.401Z,8.70
2018-03-11T02:43:31.872Z,8.70
2018-03-11T02:45:59.352Z,8.70
2018-03-11T02:48:26.921Z,8.60
2018-03-11T02:50:55.170Z,8.60
2018-03-11T02:53:22.636Z,8.50
2018-03-11T02:55:50.088Z,8.50
2018-03-11T02:58:17.558Z,8.50
2018-03-11T03:03:19.125Z,8.50
2018-03-11T03:05:46.630Z,8.50
2018-03-11T03:08:14.270Z,8.50
2018-03-11T03:10:41.733Z,8.40
2018-03-11T03:13:09.208Z,8.40
2018-03-11T03:15:36.704Z,8.40
2018-03-11T03:18:04.168Z,8.40
2018-03-11T03:20:31.638Z,8.40
2018-03-11T03:22:59.922Z,8.40
2018-03-11T03:25:28.180Z,8.40
2018-03-11T03:27:55.659Z,8.30
2018-03-11T03:30:23.890Z,8.30
2018-03-11T03:32:51.378Z,8.30
2018-03-11T03:35:19.607Z,8.30
2018-03-11T03:37:47.082Z,8.30
2018-03-11T03:40:14.603Z,8.40
2018-03-11T03:42:42.125Z,8.30
2018-03-11T03:45:10.367Z,8.30
2018-03-11T03:47:37.838Z,8.30
2018-03-11T03:50:05.318Z,8.30
2018-03-11T03:52:33.549Z,8.30
2018-03-11T03:55:01.030Z,8.20
2018-03-11T03:57:28.625Z,8.30
2018-03-11T03:59:56.043Z,8.40
2018-03-11T04:02:23.506Z,8.30
2018-03-11T04:04:52.495Z,8.30
2018-03-11T04:07:20.726Z,8.40
2018-03-11T04:09:48.218Z,8.40
2018-03-11T04:12:15.786Z,8.50
2018-03-11T04:14:43.250Z,8.50
2018-03-11T04:17:11.526Z,8.40
2018-03-11T04:19:38.998Z,8.30
2018-03-11T04:22:07.250Z,8.40
2018-03-11T04:24:35.641Z,8.30
2018-03-11T04:27:03.880Z,8.20
2018-03-11T04:29:31.349Z,8.20
2018-03-11T04:31:58.824Z,8.20
2018-03-11T04:34:27.106Z,8.10
2018-03-11T04:36:55.441Z,8.10
2018-03-11T04:39:22.905Z,8.00
2018-03-11T04:41:50.391Z,8.10
2018-03-11T04:44:17.998Z,8.00
2018-03-11T04:46:45.489Z,8.00
2018-03-11T04:49:13.732Z,8.00
2018-03-11T04:51:41.196Z,8.00
2018-03-11T04:54:08.697Z,8.00
2018-03-11T04:56:36.197Z,8.00
2018-03-11T04:59:03.725Z,8.10
2018-03-11T05:01:31.951Z,8.10
2018-03-11T05:03:59.423Z,8.00
2018-03-11T05:06:26.886Z,8.00
2018-03-11T05:08:54.378Z,8.00
2018-03-11T05:11:22.597Z,7.90
2018-03-11T05:13:51.953Z,7.90
2018-03-11T05:16:20.184Z,8.00
2018-03-11T05:18:47.653Z,7.90
2018-03-11T05:21:15.118Z,7.90
2018-03-11T05:23:42.582Z,7.90
2018-03-11T05:26:10.836Z,7.90
2018-03-11T05:28:38.298Z,7.80
2018-03-11T05:31:05.763Z,7.90
2018-03-11T05:33:33.341Z,7.90
2018-03-11T05:36:01.570Z,8.00
2018-03-11T05:38:29.024Z,7.90
2018-03-11T05:40:56.502Z,8.00
2018-03-11T05:43:23.961Z,8.00
2018-03-11T05:45:51.421Z,7.90
2018-03-11T05:48:18.964Z,7.90
2018-03-11T05:50:46.433Z,7.90
2018-03-11T05:53:14.692Z,7.80
2018-03-11T05:55:42.266Z,7.80
2018-03-11T05:58:09.724Z,7.80
2018-03-11T06:00:37.296Z,7.80
2018-03-11T06:03:04.794Z,7.80
2018-03-11T06:05:32.248Z,7.80
2018-03-11T06:07:59.760Z,7.90
2018-03-11T06:10:27.215Z,7.90
2018-03-11T06:15:28.558Z,7.90
2018-03-11T06:17:56.020Z,7.90
2018-03-11T06:20:23.486Z,8.00
2018-03-11T06:22:50.942Z,8.00
2018-03-11T06:25:18.468Z,8.10
2018-03-11T06:27:45.955Z,8.10
2018-03-11T06:30:13.439Z,8.20
2018-03-11T06:32:41.661Z,8.30
2018-03-11T06:35:09.141Z,8.30
2018-03-11T06:37:36.617Z,8.40
2018-03-11T06:40:04.174Z,8.40
2018-03-11T06:42:31.724Z,8.40
2018-03-11T06:44:59.212Z,8.30
2018-03-11T06:47:26.668Z,8.40
2018-03-11T06:49:54.124Z,8.40
2018-03-11T06:52:21.609Z,8.50
2018-03-11T06:54:49.079Z,8.60
2018-03-11T06:57:16.548Z,8.60
2018-03-11T06:59:44.025Z,8.70
2018-03-11T07:02:11.572Z,8.80
2018-03-11T07:04:39.131Z,8.90
2018-03-11T07:07:06.704Z,9.00
2018-03-11T07:09:34.076Z,9.10
2018-03-11T07:12:02.380Z,9.20
2018-03-11T07:14:29.890Z,9.10
2018-03-11T07:16:57.368Z,9.30
2018-03-11T07:19:25.626Z,9.40
2018-03-11T07:21:53.096Z,9.40
2018-03-11T07:24:21.324Z,9.60
2018-03-11T07:26:48.821Z,9.50
2018-03-11T07:29:17.066Z,9.80
2018-03-11T07:31:44.538Z,9.80
2018-03-11T07:34:12.000Z,9.80
2018-03-11T07:36:39.499Z,9.90
2018-03-11T07:39:06.976Z,10.00
2018-03-11T07:41:34.457Z,10.10
2018-03-11T07:44:02.041Z,10.20
2018-03-11T07:46:30.395Z,10.60
2018-03-11T07:48:57.891Z,10.50
2018-03-11T07:51:26.134Z,10.80
2018-03-11T07:53:53.616Z,10.70
2018-03-11T07:56:21.850Z,11.00
2018-03-11T07:58:49.330Z,10.90
2018-03-11T08:01:16.885Z,11.10
2018-03-11T08:03:46.236Z,11.10
2018-03-11T08:06:13.706Z,11.20
2018-03-11T08:08:41.202Z,11.30
2018-03-11T08:11:09.465Z,11.50
2018-03-11T08:13:37.037Z,11.40
2018-03-11T08:16:04.534Z,11.50
2018-03-11T08:18:32.005Z,11.70
2018-03-11T08:20:59.520Z,11.90
2018-03-11T08:23:27.775Z,12.70
2018-03-11T08:25:56.031Z,13.10
2018-03-11T08:28:23.533Z,13.00
2018-03-11T08:30:51.789Z,13.30
2018-03-11T08:33:19.467Z,13.20
2018-03-11T08:35:47.732Z,13.70
2018-03-11T08:38:15.207Z,13.60
2018-03-11T08:40:42.742Z,13.80
2018-03-11T08:43:10.240Z,14.00
2018-03-11T08:45:37.718Z,14.00
2018-03-11T08:48:05.181Z,14.00
2018-03-11T08:50:32.686Z,14.10
2018-03-11T08:53:00.970Z,14.50
2018-03-11T08:55:29.210Z,14.30
2018-03-11T08:57:56.733Z,14.30
2018-03-11T09:00:24.200Z,14.40
2018-03-11T09:02:51.670Z,14.80
2018-03-11T09:05:19.269Z,15.10
2018-03-11T09:07:47.508Z,15.80
2018-03-11T09:10:15.082Z,15.80
2018-03-11T09:12:42.548Z,16.10
2018-03-11T09:15:10.784Z,16.60
2018-03-11T09:17:38.268Z,16.50
2018-03-11T09:20:05.762Z,16.80
2018-03-11T09:22:33.229Z,17.00
2018-03-11T09:25:00.694Z,17.00
2018-03-11T09:27:28.170Z,16.70
2018-03-11T09:29:55.642Z,16.40
2018-03-11T09:32:23.217Z,16.20
2018-03-11T09:34:50.803Z,15.90
2018-03-11T09:37:18.251Z,16.00
2018-03-11T09:39:46.492Z,16.50
2018-03-11T09:42:14.066Z,16.40
2018-03-11T09:44:41.624Z,16.50
2018-03-11T09:47:09.176Z,16.70
2018-03-11T09:49:36.649Z,16.90
2018-03-11T09:52:04.880Z,17.30
2018-03-11T09:54:32.386Z,17.30
2018-03-11T09:56:59.918Z,17.30
2018-03-11T09:59:27.346Z,17.30
2018-03-11T10:01:54.845Z,17.10
2018-03-11T10:04:23.086Z,16.90
2018-03-11T10:06:50.577Z,16.80
2018-03-11T10:09:18.051Z,17.30
2018-03-11T10:11:46.280Z,17.80
2018-03-11T10:14:13.762Z,17.80
2018-03-11T10:16:41.233Z,17.80
2018-03-11T10:19:09.550Z,17.50
2018-03-11T10:21:37.066Z,17.40
2018-03-11T10:24:05.318Z,18.20
2018-03-11T10:26:32.773Z,18.10
2018-03-11T10:29:00.245Z,18.70
2018-03-11T10:31:27.710Z,19.30
2018-03-11T10:33:55.214Z,19.10
2018-03-11T10:36:22.665Z,19.00
2018-03-11T10:38:50.136Z,18.90
2018-03-11T10:41:17.644Z,18.20
2018-03-11T10:43:45.874Z,18.30
2018-03-11T10:46:13.368Z,18.20
2018-03-11T10:48:40.832Z,19.30
2018-03-11T10:51:09.069Z,20.50
2018-03-11T10:53:36.528Z,20.40
2018-03-11T10:56:04.063Z,20.70
2018-03-11T10:58:31.561Z,20.60
2018-03-11T11:00:59.024Z,19.80
2018-03-11T11:03:28.364Z,19.20
2018-03-11T11:05:55.885Z,19.50
2018-03-11T11:08:23.339Z,19.30
2018-03-11T11:10:50.797Z,19.10
2018-03-11T11:13:18.276Z,18.70
2018-03-11T11:15:46.504Z,18.10
2018-03-11T11:18:13.962Z,18.00
2018-03-11T11:20:41.539Z,17.90
2018-03-11T11:23:09.103Z,17.90
2018-03-11T11:25:36.855Z,17.70
2018-03-11T11:28:04.419Z,17.60
2018-03-11T11:30:33.408Z,16.90
2018-03-11T11:33:01.692Z,16.80
2018-03-11T11:35:29.919Z,16.70
2018-03-11T11:37:57.382Z,16.60
2018-03-11T11:40:24.870Z,16.50
2018-03-11T11:42:52.341Z,16.40
2018-03-11T11:45:19.813Z,16.30
2018-03-11T11:47:48.154Z,16.20
2018-03-11T11:50:15.635Z,16.10
2018-03-11T11:52:43.198Z,16.00
2018-03-11T11:55:11.428Z,17.00
2018-03-11T11:57:38.892Z,16.90
2018-03-11T12:00:06.428Z,17.40
2018-03-11T12:02:33.930Z,18.00
2018-03-11T12:05:02.902Z,19.30
2018-03-11T12:07:30.396Z,19.30
2018-03-11T12:09:58.617Z,19.20
2018-03-11T12:12:26.077Z,19.10
2018-03-11T12:14:54.095Z,19.40
2018-03-11T12:17:22.379Z,19.70
2018-03-11T12:19:49.816Z,19.70
2018-03-11T12:22:17.272Z,20.00
2018-03-11T12:24:46.244Z,20.00
2018-03-11T12:27:13.696Z,20.00
2018-03-11T12:29:41.194Z,20.20
2018-03-11T12:32:09.426Z,19.90
2018-03-11T12:34:36.892Z,19.90
2018-03-11T12:37:04.373Z,19.70
2018-03-11T12:39:31.838Z,19.70
2018-03-11T12:42:00.151Z,19.10
2018-03-11T12:44:27.655Z,19.00
2018-03-11T12:46:55.121Z,18.90
2018-03-11T12:49:22.687Z,18.90
2018-03-11T12:51:50.929Z,19.00
2018-03-11T12:54:18.390Z,19.00
2018-03-11T12:56:45.853Z,19.10
2018-03-11T12:59:14.088Z,19.00
2018-03-11T13:01:41.718Z,19.00
2018-03-11T13:04:09.957Z,18.90
2018-03-11T13:06:37.420Z,18.80
2018-03-11T13:09:05.707Z,18.40
2018-03-11T13:11:33.169Z,18.30
2018-03-11T13:14:01.487Z,18.40
2018-03-11T13:16:28.953Z,18.30
2018-03-11T13:18:56.416Z,18.40
2018-03-11T13:21:23.888Z,18.50
2018-03-11T13:23:51.396Z,18.60
2018-03-11T13:26:18.917Z,18.60
2018-03-11T13:28:47.174Z,18.70
2018-03-11T13:31:14.624Z,18.60
2018-03-11T13:33:53.934Z,18.70
2018-03-11T13:36:21.390Z,18.60
2018-03-11T13:39:00.773Z,18.70
2018-03-11T13:41:28.333Z,18.60
2018-03-11T13:43:55.884Z,18.50
2018-03-11T13:46:35.201Z,18.60
2018-03-11T13:49:02.662Z,18.60
2018-03-11T13:51:42.021Z,18.60
2018-03-11T13:54:09.492Z,18.70
2018-03-11T13:56:37.748Z,18.90
2018-03-11T13:59:06.032Z,18.70
2018-03-11T14:01:33.495Z,18.60
2018-03-11T14:04:01.742Z,18.70
2018-03-11T14:06:29.213Z,18.70
2018-03-11T14:08:56.696Z,18.80
2018-03-11T14:11:25.004Z,19.00
2018-03-11T14:13:52.509Z,18.90
2018-03-11T14:16:20.010Z,19.00
2018-03-11T14:18:47.548Z,18.80
2018-03-11T14:21:15.808Z,18.90
2018-03-11T14:23:43.310Z,18.80
2018-03-11T14:26:10.766Z,19.00
2018-03-11T14:28:38.273Z,19.10
2018-03-11T14:31:05.746Z,19.20
2018-03-11T14:33:34.980Z,19.20
2018-03-11T14:36:02.452Z,19.10
2018-03-11T14:38:29.917Z,19.20
2018-03-11T14:40:57.379Z,19.30
2018-03-11T14:43:24.833Z,19.30
2018-03-11T14:45:52.304Z,19.50
2018-03-11T14:48:19.873Z,19.70
2018-03-11T14:50:47.430Z,19.90
2018-03-11T14:53:14.890Z,20.40
2018-03-11T14:55:42.343Z,21.40
2018-03-11T14:58:09.838Z,22.10
2018-03-11T15:00:38.068Z,22.30
2018-03-11T15:03:05.538Z,22.20
2018-03-11T15:05:33.002Z,22.40
2018-03-11T15:08:01.236Z,22.20
2018-03-11T15:10:28.714Z,22.10
2018-03-11T15:12:56.278Z,21.90
2018-03-11T15:15:23.837Z,22.10
2018-03-11T15:17:51.318Z,22.50
2018-03-11T15:20:19.540Z,23.10
2018-03-11T15:22:46.996Z,23.00
2018-03-11T15:25:14.477Z,23.90
2018-03-11T15:27:42.038Z,24.20
2018-03-11T15:30:09.525Z,23.90
2018-03-11T15:32:37.806Z,23.80
2018-03-11T15:35:05.450Z,23.70
2018-03-11T15:37:33.722Z,23.10
2018-03-11T15:40:01.971Z,22.80
2018-03-11T15:42:29.541Z,22.70
2018-03-11T15:44:57.826Z,21.80
2018-03-11T15:47:25.483Z,21.80
2018-03-11T15:49:52.968Z,21.30
2018-03-11T15:52:21.207Z,20.50
2018-03-11T15:54:48.655Z,20.40
2018-03-11T15:57:16.117Z,20.50
2018-03-11T15:59:43.697Z,20.50
2018-03-11T16:02:11.941Z,20.00
2018-03-11T16:04:39.392Z,19.90
2018-03-11T16:07:06.853Z,19.80
2018-03-11T16:09:34.313Z,19.50
2018-03-11T16:12:02.721Z,19.20
2018-03-11T16:14:30.173Z,19.00
2018-03-11T16:16:58.416Z,18.80
2018-03-11T16:19:25.869Z,18.70
2018-03-11T16:21:53.453Z,18.70
2018-03-11T16:24:28.473Z,18.70
2018-03-11T16:26:48.468Z,18.80
2018-03-11T16:29:17.460Z,18.90
2018-03-11T16:31:44.919Z,18.90
2018-03-11T16:34:12.388Z,18.80
2018-03-11T16:36:39.836Z,18.70
2018-03-11T16:39:07.293Z,18.40
2018-03-11T16:41:34.849Z,18.30
2018-03-11T16:44:02.307Z,18.10
2018-03-11T16:46:29.764Z,17.90
2018-03-11T16:48:57.328Z,17.80
2018-03-11T16:51:24.808Z,17.70
2018-03-11T16:53:53.050Z,17.40
2018-03-11T16:56:22.020Z,17.30
2018-03-11T16:58:49.496Z,17.30
2018-03-11T17:01:17.116Z,17.20
2018-03-11T17:03:44.573Z,17.10
2018-03-11T17:06:12.072Z,17.10
2018-03-11T17:08:39.538Z,16.90
2018-03-11T17:11:07.090Z,16.90
2018-03-11T17:13:34.570Z,16.80
2018-03-11T17:16:02.802Z,16.70
2018-03-11T17:18:30.269Z,16.60
2018-03-11T17:20:57.751Z,16.70
2018-03-11T17:23:26.013Z,16.60
2018-03-11T17:25:53.505Z,16.50
2018-03-11T17:28:20.981Z,16.50
2018-03-11T17:30:48.450Z,16.50
2018-03-11T17:33:15.908Z,16.50
2018-03-11T17:35:43.518Z,16.40
2018-03-11T17:38:11.745Z,16.30
2018-03-11T17:40:39.210Z,16.20
2018-03-11T17:43:06.668Z,16.20
2018-03-11T17:45:34.133Z,16.10
2018-03-11T17:48:01.609Z,16.10
2018-03-11T17:50:29.171Z,16.10
2018-03-11T17:52:56.632Z,16.10
2018-03-11T17:55:24.126Z,16.00
2018-03-11T17:57:51.632Z,15.90
2018-03-11T18:00:19.142Z,15.80
2018-03-11T18:02:46.643Z,15.80
2018-03-11T18:05:14.100Z,15.70
2018-03-11T18:07:41.560Z,15.70
2018-03-11T18:10:09.040Z,15.70
2018-03-11T18:12:36.659Z,15.70
2018-03-11T18:15:04.138Z,15.60
2018-03-11T18:17:31.650Z,15.60
2018-03-11T18:19:59.167Z,15.50
2018-03-11T18:22:27.577Z,15.40
2018-03-11T18:24:55.057Z,15.40
2018-03-11T18:27:22.541Z,15.30
2018-03-11T18:29:50.022Z,15.30
2018-03-11T18:32:17.503Z,15.30
2018-03-11T18:34:44.982Z,15.20
2018-03-11T18:37:12.466Z,15.10
2018-03-11T18:39:39.978Z,15.10
2018-03-11T18:42:07.447Z,15.10
2018-03-11T18:44:34.925Z,15.10
2018-03-11T18:47:02.458Z,15.10
2018-03-11T18:49:29.937Z,15.10
2018-03-11T18:51:57.406Z,15.00
2018-03-11T18:54:24.898Z,15.00
2018-03-11T18:56:52.376Z,15.00
2018-03-11T18:59:19.892Z,15.00
2018-03-11T19:01:47.444Z,15.00
2018-03-11T19:04:14.920Z,15.00
2018-03-11T19:06:43.173Z,15.00
2018-03-11T19:09:10.724Z,14.90
2018-03-11T19:11:38.244Z,14.90
2018-03-11T19:14:05.709Z,14.90
2018-03-11T19:16:33.190Z,14.90
2018-03-11T19:19:00.685Z,14.90
2018-03-11T19:21:28.926Z,14.70
2018-03-11T19:23:56.508Z,14.70
2018-03-11T19:26:24.825Z,14.60
2018-03-11T19:28:52.328Z,14.50
2018-03-11T19:31:19.823Z,14.60
2018-03-11T19:33:47.302Z,14.50
2018-03-11T19:36:14.780Z,14.40
2018-03-11T19:38:42.260Z,14.40
2018-03-11T19:41:09.738Z,14.40
2018-03-11T19:43:37.974Z,14.40
2018-03-11T19:46:05.465Z,14.30
2018-03-11T19:48:33.722Z,14.30
2018-03-11T19:51:01.232Z,14.30
2018-03-11T19:53:28.702Z,14.30
2018-03-11T19:55:56.213Z,14.30
2018-03-11T19:58:24.428Z,14.30
2018-03-11T20:00:51.930Z,14.20
2018-03-11T20:03:19.437Z,14.30
2018-03-11T20:05:46.908Z,14.20
2018-03-11T20:08:14.399Z,14.20
2018-03-11T20:10:42.671Z,14.10
2018-03-11T20:13:10.233Z,14.10
2018-03-11T20:15:37.802Z,14.10
2018-03-11T20:18:05.347Z,14.10
2018-03-11T20:20:32.944Z,14.10
2018-03-11T20:23:00.573Z,14.10
2018-03-11T20:25:28.676Z,14.10
2018-03-11T20:27:56.125Z,14.00
2018-03-11T20:30:24.371Z,13.90
2018-03-11T20:32:53.356Z,13.80
2018-03-11T20:35:20.876Z,13.80
2018-03-11T20:37:48.343Z,13.80
2018-03-11T20:40:15.825Z,13.80
2018-03-11T20:42:43.301Z,13.80
2018-03-11T20:45:11.540Z,13.80
2018-03-11T20:47:39.035Z,13.70
2018-03-11T20:50:06.569Z,13.80
2018-03-11T20:52:34.054Z,13.80
2018-03-11T20:55:01.613Z,13.80
2018-03-11T20:57:29.879Z,13.70
2018-03-11T20:59:57.354Z,13.60
2018-03-11T21:02:25.620Z,13.60
2018-03-11T21:04:54.266Z,13.60
2018-03-11T21:07:21.756Z,13.50
2018-03-11T21:09:49.280Z,13.60
2018-03-11T21:12:16.789Z,13.60
2018-03-11T21:14:45.027Z,13.50
2018-03-11T21:17:12.612Z,13.40
2018-03-11T21:19:40.857Z,13.40
2018-03-11T21:22:08.356Z,13.40
2018-03-11T21:24:36.598Z,13.40
2018-03-11T21:27:04.074Z,13.30
2018-03-11T21:29:31.574Z,13.40
2018-03-11T21:31:59.046Z,13.40
2018-03-11T21:34:26.555Z,13.30
2018-03-11T21:36:54.788Z,13.30
2018-03-11T21:39:22.289Z,13.20
2018-03-11T21:41:50.554Z,13.30
2018-03-11T21:44:18.796Z,13.30
2018-03-11T21:46:46.266Z,13.20
2018-03-11T21:49:13.849Z,13.30
2018-03-11T21:51:42.105Z,13.10
2018-03-11T21:54:09.619Z,13.00
2018-03-11T21:56:37.131Z,13.10
2018-03-11T21:59:04.791Z,13.00
2018-03-11T22:01:32.352Z,13.00
2018-03-11T22:03:59.929Z,13.00
2018-03-11T22:06:28.167Z,13.00
2018-03-11T22:08:55.640Z,13.00
2018-03-11T22:11:23.116Z,13.00
2018-03-11T22:13:51.367Z,13.00
2018-03-11T22:16:18.838Z,12.90
2018-03-11T22:18:47.101Z,12.90
2018-03-11T22:21:14.690Z,12.90
2018-03-11T22:23:42.172Z,12.90
2018-03-11T22:26:09.640Z,12.90
2018-03-11T22:28:37.229Z,12.90
2018-03-11T22:31:04.725Z,12.80
2018-03-11T22:33:32.218Z,12.80
2018-03-11T22:35:59.704Z,12.70
2018-03-11T22:38:27.225Z,12.60
2018-03-11T22:40:54.717Z,12.60
2018-03-11T22:43:22.288Z,12.50
2018-03-11T22:45:50.536Z,12.40
2018-03-11T22:48:18.023Z,12.40
2018-03-11T22:50:46.302Z,12.40
2018-03-11T22:53:14.551Z,12.40
2018-03-11T22:55:42.016Z,12.30
2018-03-11T22:58:09.501Z,12.30
2018-03-11T23:00:37.732Z,12.30
2018-03-11T23:03:05.213Z,12.20
2018-03-11T23:05:32.685Z,12.20
2018-03-11T23:08:00.182Z,12.20
2018-03-11T23:10:27.765Z,12.20
2018-03-11T23:12:55.447Z,12.10
2018-03-11T23:15:23.719Z,12.00
2018-03-11T23:17:51.214Z,11.90
2018-03-11T23:20:18.685Z,12.00
2018-03-11T23:22:46.265Z,11.90
2018-03-11T23:25:13.744Z,11.90
2018-03-11T23:27:41.297Z,11.90
2018-03-11T23:30:08.904Z,11.90
2018-03-11T23:32:36.396Z,11.90
2018-03-11T23:35:03.865Z,12.00
2018-03-11T23:37:31.350Z,12.00
2018-03-11T23:39:58.903Z,12.00
2018-03-11T23:42:27.145Z,12.00
2018-03-11T23:44:54.648Z,11.90
2018-03-11T23:47:23.004Z,11.90
2018-03-11T23:49:50.480Z,11.90
2018-03-11T23:52:18.720Z,11.90
2018-03-11T23:54:46.211Z,11.90
2018-03-11T23:57:14.454Z,11.90
2018-03-11T23:59:42.030Z,11.80
